sensor_id;sensor_type;location;lat;lon;timestamp;temperature;humidity
22923;DHT22;11627;51.322;22.816;2023-03-01T00:01:38;-3.00;97.60
22923;DHT22;11627;51.322;22.816;2023-03-01T00:04:05;-3.10;97.30
22923;DHT22;11627;51.322;22.816;2023-03-01T00:06:30;-3.00;96.90
22923;DHT22;11627;51.322;22.816;2023-03-01T00:08:59;-3.00;97.30
22923;DHT22;11627;51.322;22.816;2023-03-01T00:11:28;-3.00;97.20
22923;DHT22;11627;51.322;22.816;2023-03-01T00:13:57;-3.10;96.50
22923;DHT22;11627;51.322;22.816;2023-03-01T00:16:29;-3.00;95.30
22923;DHT22;11627;51.322;22.816;2023-03-01T00:18:56;-3.10;94.10
22923;DHT22;11627;51.322;22.816;2023-03-01T00:21:22;-3.10;93.90
22923;DHT22;11627;51.322;22.816;2023-03-01T00:23:50;-3.10;93.70
22923;DHT22;11627;51.322;22.816;2023-03-01T00:26:19;-3.10;93.70
22923;DHT22;11627;51.322;22.816;2023-03-01T00:28:46;-3.10;94.10
22923;DHT22;11627;51.322;22.816;2023-03-01T00:31:20;-3.10;93.70
22923;DHT22;11627;51.322;22.816;2023-03-01T00:33:47;-3.10;93.40
22923;DHT22;11627;51.322;22.816;2023-03-01T00:36:15;-3.10;92.30
22923;DHT22;11627;51.322;22.816;2023-03-01T00:38:44;-3.10;92.70
22923;DHT22;11627;51.322;22.816;2023-03-01T00:41:13;-3.10;92.30
22923;DHT22;11627;51.322;22.816;2023-03-01T00:43:40;-3.10;92.30
22923;DHT22;11627;51.322;22.816;2023-03-01T00:46:17;-3.00;93.40
22923;DHT22;11627;51.322;22.816;2023-03-01T00:48:44;-3.00;95.20
22923;DHT22;11627;51.322;22.816;2023-03-01T00:53:58;-3.10;96.50
22923;DHT22;11627;51.322;22.816;2023-03-01T00:56:25;-3.10;96.60
22923;DHT22;11627;51.322;22.816;2023-03-01T00:58:53;-3.10;96.20
22923;DHT22;11627;51.322;22.816;2023-03-01T01:01:21;-3.10;97.20
22923;DHT22;11627;51.322;22.816;2023-03-01T01:03:53;-3.20;97.40
22923;DHT22;11627;51.322;22.816;2023-03-01T01:06:57;-3.20;98.70
22923;DHT22;11627;51.322;22.816;2023-03-01T01:09:25;-3.30;99.60
22923;DHT22;11627;51.322;22.816;2023-03-01T01:11:52;-3.30;99.90
22923;DHT22;11627;51.322;22.816;2023-03-01T01:14:19;-3.30;99.90
22923;DHT22;11627;51.322;22.816;2023-03-01T01:16:47;-3.30;99.90
22923;DHT22;11627;51.322;22.816;2023-03-01T01:19:18;-3.30;99.90
22923;DHT22;11627;51.322;22.816;2023-03-01T01:21:44;-3.30;99.90
22923;DHT22;11627;51.322;22.816;2023-03-01T01:24:17;-3.40;99.90
22923;DHT22;11627;51.322;22.816;2023-03-01T01:26:47;-3.30;99.90
22923;DHT22;11627;51.322;22.816;2023-03-01T01:29:15;-3.30;99.90
22923;DHT22;11627;51.322;22.816;2023-03-01T01:31:45;-3.30;99.90
22923;DHT22;11627;51.322;22.816;2023-03-01T01:34:19;-3.40;99.90
22923;DHT22;11627;51.322;22.816;2023-03-01T01:36:52;-3.30;99.90
22923;DHT22;11627;51.322;22.816;2023-03-01T01:39:20;-3.40;99.90
22923;DHT22;11627;51.322;22.816;2023-03-01T01:41:46;-3.40;99.90
22923;DHT22;11627;51.322;22.816;2023-03-01T01:44:25;-3.40;99.90
22923;DHT22;11627;51.322;22.816;2023-03-01T01:47:20;-3.40;99.90
22923;DHT22;11627;51.322;22.816;2023-03-01T01:49:55;-3.40;99.90
22923;DHT22;11627;51.322;22.816;2023-03-01T01:52:27;-3.50;99.90
22923;DHT22;11627;51.322;22.816;2023-03-01T01:55:08;-3.40;99.90
22923;DHT22;11627;51.322;22.816;2023-03-01T01:57:51;-3.40;99.80
22923;DHT22;11627;51.322;22.816;2023-03-01T02:00:23;-3.30;99.90
22923;DHT22;11627;51.322;22.816;2023-03-01T02:02:55;-3.40;99.90
22923;DHT22;11627;51.322;22.816;2023-03-01T02:07:58;-3.40;99.90
22923;DHT22;11627;51.322;22.816;2023-03-01T02:10:28;-3.40;99.90
22923;DHT22;11627;51.322;22.816;2023-03-01T02:12:55;-3.40;99.90
22923;DHT22;11627;51.322;22.816;2023-03-01T02:15:23;-3.40;99.90
22923;DHT22;11627;51.322;22.816;2023-03-01T02:17:49;-3.50;99.90
22923;DHT22;11627;51.322;22.816;2023-03-01T02:23:34;-3.50;99.90
22923;DHT22;11627;51.322;22.816;2023-03-01T02:26:20;-3.60;99.90
22923;DHT22;11627;51.322;22.816;2023-03-01T02:28:51;-3.60;99.90
22923;DHT22;11627;51.322;22.816;2023-03-01T02:31:20;-3.60;99.90
22923;DHT22;11627;51.322;22.816;2023-03-01T02:34:06;-3.70;99.90
22923;DHT22;11627;51.322;22.816;2023-03-01T02:36:49;-3.60;99.90
22923;DHT22;11627;51.322;22.816;2023-03-01T02:39:44;-3.70;99.90
22923;DHT22;11627;51.322;22.816;2023-03-01T02:42:17;-3.70;99.90
22923;DHT22;11627;51.322;22.816;2023-03-01T02:44:48;-3.70;99.90
22923;DHT22;11627;51.322;22.816;2023-03-01T02:47:17;-3.70;99.90
22923;DHT22;11627;51.322;22.816;2023-03-01T02:49:46;-3.60;99.90
22923;DHT22;11627;51.322;22.816;2023-03-01T02:57:49;-3.80;99.90
22923;DHT22;11627;51.322;22.816;2023-03-01T03:00:33;-3.70;99.90
22923;DHT22;11627;51.322;22.816;2023-03-01T03:03:01;-3.60;99.90
22923;DHT22;11627;51.322;22.816;2023-03-01T03:05:38;-3.60;99.90
22923;DHT22;11627;51.322;22.816;2023-03-01T03:08:06;-3.50;99.90
22923;DHT22;11627;51.322;22.816;2023-03-01T03:10:37;-3.60;99.90
22923;DHT22;11627;51.322;22.816;2023-03-01T03:13:11;-3.50;99.90
22923;DHT22;11627;51.322;22.816;2023-03-01T03:15:43;-3.60;99.90
22923;DHT22;11627;51.322;22.816;2023-03-01T03:18:13;-3.50;99.90
22923;DHT22;11627;51.322;22.816;2023-03-01T03:20:44;-3.50;99.90
22923;DHT22;11627;51.322;22.816;2023-03-01T03:23:12;-3.50;99.90
22923;DHT22;11627;51.322;22.816;2023-03-01T03:25:40;-3.50;99.90
22923;DHT22;11627;51.322;22.816;2023-03-01T03:28:09;-3.50;99.90
22923;DHT22;11627;51.322;22.816;2023-03-01T03:30:39;-3.50;99.90
22923;DHT22;11627;51.322;22.816;2023-03-01T03:33:08;-3.50;99.90
22923;DHT22;11627;51.322;22.816;2023-03-01T03:35:44;-3.50;99.90
22923;DHT22;11627;51.322;22.816;2023-03-01T03:38:13;-3.50;99.90
22923;DHT22;11627;51.322;22.816;2023-03-01T03:40:45;-3.50;99.90
22923;DHT22;11627;51.322;22.816;2023-03-01T03:43:17;-3.60;99.90
22923;DHT22;11627;51.322;22.816;2023-03-01T03:45:45;-3.60;99.90
22923;DHT22;11627;51.322;22.816;2023-03-01T03:48:13;-3.70;99.90
22923;DHT22;11627;51.322;22.816;2023-03-01T03:50:41;-3.60;99.90
22923;DHT22;11627;51.322;22.816;2023-03-01T03:53:11;-3.60;99.90
22923;DHT22;11627;51.322;22.816;2023-03-01T03:55:38;-3.60;99.90
22923;DHT22;11627;51.322;22.816;2023-03-01T03:58:08;-3.60;99.90
22923;DHT22;11627;51.322;22.816;2023-03-01T04:00:39;-3.60;99.90
22923;DHT22;11627;51.322;22.816;2023-03-01T04:03:12;-3.60;99.90
22923;DHT22;11627;51.322;22.816;2023-03-01T04:05:40;-3.50;99.90
22923;DHT22;11627;51.322;22.816;2023-03-01T04:08:13;-3.50;99.90
22923;DHT22;11627;51.322;22.816;2023-03-01T04:10:46;-3.50;99.90
22923;DHT22;11627;51.322;22.816;2023-03-01T04:13:19;-3.50;99.90
22923;DHT22;11627;51.322;22.816;2023-03-01T04:15:52;-3.50;99.90
22923;DHT22;11627;51.322;22.816;2023-03-01T04:18:21;-3.50;99.90
22923;DHT22;11627;51.322;22.816;2023-03-01T04:20:47;-3.40;99.90
22923;DHT22;11627;51.322;22.816;2023-03-01T04:23:18;-3.50;99.90
22923;DHT22;11627;51.322;22.816;2023-03-01T04:26:07;-3.40;99.90
22923;DHT22;11627;51.322;22.816;2023-03-01T04:28:37;-3.40;99.90
22923;DHT22;11627;51.322;22.816;2023-03-01T04:31:12;-3.40;99.90
22923;DHT22;11627;51.322;22.816;2023-03-01T04:33:43;-3.50;99.90
22923;DHT22;11627;51.322;22.816;2023-03-01T04:36:12;-3.50;99.90
22923;DHT22;11627;51.322;22.816;2023-03-01T04:38:40;-3.50;99.90
22923;DHT22;11627;51.322;22.816;2023-03-01T04:41:20;-3.40;99.90
22923;DHT22;11627;51.322;22.816;2023-03-01T04:43:58;-3.40;99.90
22923;DHT22;11627;51.322;22.816;2023-03-01T04:46:25;-3.40;99.90
22923;DHT22;11627;51.322;22.816;2023-03-01T04:48:54;-3.40;99.90
22923;DHT22;11627;51.322;22.816;2023-03-01T04:51:23;-3.40;99.90
22923;DHT22;11627;51.322;22.816;2023-03-01T04:53:49;-3.40;99.90
22923;DHT22;11627;51.322;22.816;2023-03-01T04:56:16;-3.40;99.90
22923;DHT22;11627;51.322;22.816;2023-03-01T04:58:58;-3.40;99.90
22923;DHT22;11627;51.322;22.816;2023-03-01T05:01:23;-3.30;99.90
22923;DHT22;11627;51.322;22.816;2023-03-01T05:03:52;-3.40;99.90
22923;DHT22;11627;51.322;22.816;2023-03-01T05:06:26;-3.40;99.90
22923;DHT22;11627;51.322;22.816;2023-03-01T05:08:54;-3.40;99.90
22923;DHT22;11627;51.322;22.816;2023-03-01T05:11:22;-3.40;99.90
22923;DHT22;11627;51.322;22.816;2023-03-01T05:13:49;-3.40;99.90
22923;DHT22;11627;51.322;22.816;2023-03-01T05:16:21;-3.40;99.90
22923;DHT22;11627;51.322;22.816;2023-03-01T05:18:49;-3.30;99.90
22923;DHT22;11627;51.322;22.816;2023-03-01T05:21:18;-3.30;99.90
22923;DHT22;11627;51.322;22.816;2023-03-01T05:23:45;-3.40;99.90
22923;DHT22;11627;51.322;22.816;2023-03-01T05:26:16;-3.30;99.90
22923;DHT22;11627;51.322;22.816;2023-03-01T05:28:44;-3.30;99.90
22923;DHT22;11627;51.322;22.816;2023-03-01T05:31:12;-3.30;99.90
22923;DHT22;11627;51.322;22.816;2023-03-01T05:33:40;-3.20;99.90
22923;DHT22;11627;51.322;22.816;2023-03-01T05:36:09;-3.30;99.90
22923;DHT22;11627;51.322;22.816;2023-03-01T05:38:35;-3.30;99.90
22923;DHT22;11627;51.322;22.816;2023-03-01T05:41:02;-3.30;99.90
22923;DHT22;11627;51.322;22.816;2023-03-01T05:43:33;-3.30;99.90
22923;DHT22;11627;51.322;22.816;2023-03-01T05:46:02;-3.20;99.90
22923;DHT22;11627;51.322;22.816;2023-03-01T05:48:30;-3.20;99.90
22923;DHT22;11627;51.322;22.816;2023-03-01T05:50:59;-3.10;99.90
22923;DHT22;11627;51.322;22.816;2023-03-01T05:53:28;-3.10;99.90
22923;DHT22;11627;51.322;22.816;2023-03-01T05:55:58;-3.00;99.90
22923;DHT22;11627;51.322;22.816;2023-03-01T05:58:23;-3.00;99.90
22923;DHT22;11627;51.322;22.816;2023-03-01T06:00:52;-2.90;99.90
22923;DHT22;11627;51.322;22.816;2023-03-01T06:03:20;-2.90;99.90
22923;DHT22;11627;51.322;22.816;2023-03-01T06:05:49;-2.80;99.90
22923;DHT22;11627;51.322;22.816;2023-03-01T06:08:17;-2.80;99.90
22923;DHT22;11627;51.322;22.816;2023-03-01T06:10:44;-2.80;99.90
22923;DHT22;11627;51.322;22.816;2023-03-01T06:13:13;-2.80;99.90
22923;DHT22;11627;51.322;22.816;2023-03-01T06:15:41;-2.80;99.90
22923;DHT22;11627;51.322;22.816;2023-03-01T06:18:11;-2.90;99.90
22923;DHT22;11627;51.322;22.816;2023-03-01T06:20:38;-2.80;99.90
22923;DHT22;11627;51.322;22.816;2023-03-01T06:23:03;-2.70;99.90
22923;DHT22;11627;51.322;22.816;2023-03-01T06:25:31;-2.60;99.90
22923;DHT22;11627;51.322;22.816;2023-03-01T06:28:01;-2.60;99.90
22923;DHT22;11627;51.322;22.816;2023-03-01T06:30:28;-2.50;99.90
22923;DHT22;11627;51.322;22.816;2023-03-01T06:32:58;-2.40;99.90
22923;DHT22;11627;51.322;22.816;2023-03-01T06:35:29;-2.40;99.90
22923;DHT22;11627;51.322;22.816;2023-03-01T06:37:58;-2.30;99.90
22923;DHT22;11627;51.322;22.816;2023-03-01T06:40:33;-2.30;99.90
22923;DHT22;11627;51.322;22.816;2023-03-01T06:43:02;-2.20;99.90
22923;DHT22;11627;51.322;22.816;2023-03-01T06:45:30;-2.10;99.90
22923;DHT22;11627;51.322;22.816;2023-03-01T06:48:11;-2.00;99.90
22923;DHT22;11627;51.322;22.816;2023-03-01T06:50:37;-1.90;97.70
22923;DHT22;11627;51.322;22.816;2023-03-01T06:53:04;-1.80;96.70
22923;DHT22;11627;51.322;22.816;2023-03-01T06:55:32;-1.80;96.80
22923;DHT22;11627;51.322;22.816;2023-03-01T06:57:59;-1.70;93.20
22923;DHT22;11627;51.322;22.816;2023-03-01T07:00:27;-1.60;91.20
22923;DHT22;11627;51.322;22.816;2023-03-01T07:02:57;-1.50;86.80
22923;DHT22;11627;51.322;22.816;2023-03-01T07:05:26;-1.50;87.20
22923;DHT22;11627;51.322;22.816;2023-03-01T07:08:00;-1.50;79.50
22923;DHT22;11627;51.322;22.816;2023-03-01T07:10:27;-1.40;84.80
22923;DHT22;11627;51.322;22.816;2023-03-01T07:13:08;-1.30;77.50
22923;DHT22;11627;51.322;22.816;2023-03-01T07:15:39;-1.20;76.10
22923;DHT22;11627;51.322;22.816;2023-03-01T07:18:07;-1.10;72.80
22923;DHT22;11627;51.322;22.816;2023-03-01T07:20:36;-1.10;68.80
22923;DHT22;11627;51.322;22.816;2023-03-01T07:23:03;-1.00;66.10
22923;DHT22;11627;51.322;22.816;2023-03-01T07:25:33;-1.00;64.90
22923;DHT22;11627;51.322;22.816;2023-03-01T07:28:01;-0.90;59.50
22923;DHT22;11627;51.322;22.816;2023-03-01T07:30:28;-0.90;57.10
22923;DHT22;11627;51.322;22.816;2023-03-01T07:32:56;-0.90;53.10
22923;DHT22;11627;51.322;22.816;2023-03-01T07:35:28;-0.80;55.20
22923;DHT22;11627;51.322;22.816;2023-03-01T07:37:55;-0.70;48.60
22923;DHT22;11627;51.322;22.816;2023-03-01T07:40:22;-0.70;43.50
22923;DHT22;11627;51.322;22.816;2023-03-01T07:42:54;-0.60;37.10
22923;DHT22;11627;51.322;22.816;2023-03-01T07:45:25;-0.50;42.10
22923;DHT22;11627;51.322;22.816;2023-03-01T07:47:53;-0.40;30.40
22923;DHT22;11627;51.322;22.816;2023-03-01T07:50:20;-0.30;34.00
22923;DHT22;11627;51.322;22.816;2023-03-01T07:52:49;-0.20;33.00
22923;DHT22;11627;51.322;22.816;2023-03-01T07:55:16;-0.20;37.60
22923;DHT22;11627;51.322;22.816;2023-03-01T07:57:43;-0.10;31.40
22923;DHT22;11627;51.322;22.816;2023-03-01T08:00:11;0.00;21.30
22923;DHT22;11627;51.322;22.816;2023-03-01T08:02:39;0.00;27.70
22923;DHT22;11627;51.322;22.816;2023-03-01T08:05:09;0.00;28.70
22923;DHT22;11627;51.322;22.816;2023-03-01T08:07:38;0.00;21.00
22923;DHT22;11627;51.322;22.816;2023-03-01T08:10:06;0.10;19.10
22923;DHT22;11627;51.322;22.816;2023-03-01T08:12:34;0.30;21.90
22923;DHT22;11627;51.322;22.816;2023-03-01T08:15:02;0.50;25.80
22923;DHT22;11627;51.322;22.816;2023-03-01T08:17:51;0.50;14.60
22923;DHT22;11627;51.322;22.816;2023-03-01T08:20:18;0.50;15.10
22923;DHT22;11627;51.322;22.816;2023-03-01T08:22:47;0.60;12.50
22923;DHT22;11627;51.322;22.816;2023-03-01T08:25:13;0.50;20.40
22923;DHT22;11627;51.322;22.816;2023-03-01T08:27:40;0.50;9.40
22923;DHT22;11627;51.322;22.816;2023-03-01T08:30:12;0.70;2.30
22923;DHT22;11627;51.322;22.816;2023-03-01T08:32:42;0.90;1.00
22923;DHT22;11627;51.322;22.816;2023-03-01T08:35:10;1.00;1.00
22923;DHT22;11627;51.322;22.816;2023-03-01T08:37:39;1.10;1.00
22923;DHT22;11627;51.322;22.816;2023-03-01T08:40:05;1.10;1.00
22923;DHT22;11627;51.322;22.816;2023-03-01T08:42:36;1.10;1.00
22923;DHT22;11627;51.322;22.816;2023-03-01T08:45:06;1.20;1.00
22923;DHT22;11627;51.322;22.816;2023-03-01T08:47:36;1.30;1.00
22923;DHT22;11627;51.322;22.816;2023-03-01T08:50:03;1.40;1.00
22923;DHT22;11627;51.322;22.816;2023-03-01T08:52:32;1.40;1.00
22923;DHT22;11627;51.322;22.816;2023-03-01T08:55:01;1.30;1.00
22923;DHT22;11627;51.322;22.816;2023-03-01T08:57:29;1.50;1.00
22923;DHT22;11627;51.322;22.816;2023-03-01T08:59:55;1.40;1.00
22923;DHT22;11627;51.322;22.816;2023-03-01T09:02:24;1.40;1.00
22923;DHT22;11627;51.322;22.816;2023-03-01T09:04:52;1.30;1.00
22923;DHT22;11627;51.322;22.816;2023-03-01T09:07:20;1.30;1.00
22923;DHT22;11627;51.322;22.816;2023-03-01T09:09:47;1.40;1.00
22923;DHT22;11627;51.322;22.816;2023-03-01T09:12:15;1.40;1.00
22923;DHT22;11627;51.322;22.816;2023-03-01T09:14:42;1.50;1.00
22923;DHT22;11627;51.322;22.816;2023-03-01T09:17:09;1.60;1.00
22923;DHT22;11627;51.322;22.816;2023-03-01T09:19:38;1.60;1.00
22923;DHT22;11627;51.322;22.816;2023-03-01T09:22:07;1.60;1.00
22923;DHT22;11627;51.322;22.816;2023-03-01T09:24:36;1.70;1.00
22923;DHT22;11627;51.322;22.816;2023-03-01T09:27:04;1.70;1.00
22923;DHT22;11627;51.322;22.816;2023-03-01T09:29:40;1.80;1.00
22923;DHT22;11627;51.322;22.816;2023-03-01T09:32:07;1.80;1.00
22923;DHT22;11627;51.322;22.816;2023-03-01T09:34:34;2.00;1.00
22923;DHT22;11627;51.322;22.816;2023-03-01T09:37:22;2.20;1.00
22923;DHT22;11627;51.322;22.816;2023-03-01T09:39:49;2.00;1.00
22923;DHT22;11627;51.322;22.816;2023-03-01T09:42:19;2.00;1.00
22923;DHT22;11627;51.322;22.816;2023-03-01T09:45:18;2.20;1.00
22923;DHT22;11627;51.322;22.816;2023-03-01T09:47:47;2.20;1.00
22923;DHT22;11627;51.322;22.816;2023-03-01T09:50:15;2.20;1.00
22923;DHT22;11627;51.322;22.816;2023-03-01T09:55:45;2.20;1.00
22923;DHT22;11627;51.322;22.816;2023-03-01T10:01:52;2.60;1.00
22923;DHT22;11627;51.322;22.816;2023-03-01T10:10:51;2.80;1.00
22923;DHT22;11627;51.322;22.816;2023-03-01T10:13:33;2.90;1.00
22923;DHT22;11627;51.322;22.816;2023-03-01T10:16:09;2.80;1.00
22923;DHT22;11627;51.322;22.816;2023-03-01T10:18:51;2.90;1.00
22923;DHT22;11627;51.322;22.816;2023-03-01T10:21:21;3.10;1.00
22923;DHT22;11627;51.322;22.816;2023-03-01T10:23:51;3.20;1.00
22923;DHT22;11627;51.322;22.816;2023-03-01T10:29:11;3.20;1.00
22923;DHT22;11627;51.322;22.816;2023-03-01T10:31:56;3.20;1.00
22923;DHT22;11627;51.322;22.816;2023-03-01T10:34:32;3.40;1.00
22923;DHT22;11627;51.322;22.816;2023-03-01T10:37:17;3.40;1.00
22923;DHT22;11627;51.322;22.816;2023-03-01T10:40:04;3.50;1.00
22923;DHT22;11627;51.322;22.816;2023-03-01T10:42:53;3.50;1.00
22923;DHT22;11627;51.322;22.816;2023-03-01T10:45:39;3.50;1.00
22923;DHT22;11627;51.322;22.816;2023-03-01T10:50:36;3.30;1.00
22923;DHT22;11627;51.322;22.816;2023-03-01T10:53:27;3.30;1.00
22923;DHT22;11627;51.322;22.816;2023-03-01T10:56:20;3.30;1.00
22923;DHT22;11627;51.322;22.816;2023-03-01T10:59:03;3.30;1.00
22923;DHT22;11627;51.322;22.816;2023-03-01T11:01:32;3.50;1.00
22923;DHT22;11627;51.322;22.816;2023-03-01T11:04:17;3.60;1.00
22923;DHT22;11627;51.322;22.816;2023-03-01T11:06:43;3.50;1.00
22923;DHT22;11627;51.322;22.816;2023-03-01T11:09:23;3.30;5.10
22923;DHT22;11627;51.322;22.816;2023-03-01T11:11:54;3.40;11.40
22923;DHT22;11627;51.322;22.816;2023-03-01T11:14:26;3.40;9.30
22923;DHT22;11627;51.322;22.816;2023-03-01T11:19:39;3.80;5.30
22923;DHT22;11627;51.322;22.816;2023-03-01T11:22:19;4.10;1.90
22923;DHT22;11627;51.322;22.816;2023-03-01T11:24:53;4.30;1.00
22923;DHT22;11627;51.322;22.816;2023-03-01T11:27:25;4.20;1.00
22923;DHT22;11627;51.322;22.816;2023-03-01T11:32:24;4.30;1.00
22923;DHT22;11627;51.322;22.816;2023-03-01T11:35:04;4.30;1.00
22923;DHT22;11627;51.322;22.816;2023-03-01T11:38:03;4.30;1.00
22923;DHT22;11627;51.322;22.816;2023-03-01T11:40:43;4.30;1.00
22923;DHT22;11627;51.322;22.816;2023-03-01T11:51:56;4.90;1.00
22923;DHT22;11627;51.322;22.816;2023-03-01T12:08:41;4.80;1.00
22923;DHT22;11627;51.322;22.816;2023-03-01T12:14:08;4.80;1.00
22923;DHT22;11627;51.322;22.816;2023-03-01T12:34:11;4.20;1.00
22923;DHT22;11627;51.322;22.816;2023-03-01T12:39:43;4.40;1.00
22923;DHT22;11627;51.322;22.816;2023-03-01T12:48:08;4.80;1.00
22923;DHT22;11627;51.322;22.816;2023-03-01T12:50:42;4.90;1.00
22923;DHT22;11627;51.322;22.816;2023-03-01T12:55:56;4.80;1.00
22923;DHT22;11627;51.322;22.816;2023-03-01T13:07:04;5.10;1.00
22923;DHT22;11627;51.322;22.816;2023-03-01T13:12:51;5.00;1.00
22923;DHT22;11627;51.322;22.816;2023-03-01T13:20:45;5.00;1.00
22923;DHT22;11627;51.322;22.816;2023-03-01T13:23:36;5.00;1.00
22923;DHT22;11627;51.322;22.816;2023-03-01T13:26:17;5.10;1.00
22923;DHT22;11627;51.322;22.816;2023-03-01T13:28:52;5.10;1.00
22923;DHT22;11627;51.322;22.816;2023-03-01T13:33:46;5.10;1.00
22923;DHT22;11627;51.322;22.816;2023-03-01T13:39:29;5.40;1.00
22923;DHT22;11627;51.322;22.816;2023-03-01T13:41:57;5.40;1.00
22923;DHT22;11627;51.322;22.816;2023-03-01T13:44:33;5.20;1.00
22923;DHT22;11627;51.322;22.816;2023-03-01T13:49:51;5.30;1.00
22923;DHT22;11627;51.322;22.816;2023-03-01T13:53:01;5.50;1.00
22923;DHT22;11627;51.322;22.816;2023-03-01T13:55:42;5.60;1.00
22923;DHT22;11627;51.322;22.816;2023-03-01T14:00:46;5.70;1.00
22923;DHT22;11627;51.322;22.816;2023-03-01T14:03:18;5.90;1.00
22923;DHT22;11627;51.322;22.816;2023-03-01T14:08:25;6.20;1.00
22923;DHT22;11627;51.322;22.816;2023-03-01T14:16:24;7.00;1.00
22923;DHT22;11627;51.322;22.816;2023-03-01T14:19:27;7.40;99.90
22923;DHT22;11627;51.322;22.816;2023-03-01T14:22:17;7.40;99.90
22923;DHT22;11627;51.322;22.816;2023-03-01T14:25:30;7.30;99.90
22923;DHT22;11627;51.322;22.816;2023-03-01T14:27:38;7.00;99.90
22923;DHT22;11627;51.322;22.816;2023-03-01T14:30:19;6.60;99.90
22923;DHT22;11627;51.322;22.816;2023-03-01T14:32:54;6.50;99.90
22923;DHT22;11627;51.322;22.816;2023-03-01T14:35:31;6.30;99.90
22923;DHT22;11627;51.322;22.816;2023-03-01T14:37:57;6.00;99.90
22923;DHT22;11627;51.322;22.816;2023-03-01T14:40:33;5.80;1.00
22923;DHT22;11627;51.322;22.816;2023-03-01T14:43:01;5.50;1.00
22923;DHT22;11627;51.322;22.816;2023-03-01T14:45:29;5.30;1.00
22923;DHT22;11627;51.322;22.816;2023-03-01T14:48:00;5.30;1.00
22923;DHT22;11627;51.322;22.816;2023-03-01T14:50:32;5.30;1.00
22923;DHT22;11627;51.322;22.816;2023-03-01T14:53:22;5.20;1.00
22923;DHT22;11627;51.322;22.816;2023-03-01T14:56:12;5.20;1.00
22923;DHT22;11627;51.322;22.816;2023-03-01T14:58:38;5.10;1.00
22923;DHT22;11627;51.322;22.816;2023-03-01T15:01:05;5.10;1.00
22923;DHT22;11627;51.322;22.816;2023-03-01T15:03:45;5.10;1.00
22923;DHT22;11627;51.322;22.816;2023-03-01T15:06:15;5.20;1.00
22923;DHT22;11627;51.322;22.816;2023-03-01T15:08:44;5.20;1.00
22923;DHT22;11627;51.322;22.816;2023-03-01T15:11:21;5.20;1.00
22923;DHT22;11627;51.322;22.816;2023-03-01T15:13:48;5.20;1.00
22923;DHT22;11627;51.322;22.816;2023-03-01T15:18:52;5.20;1.00
22923;DHT22;11627;51.322;22.816;2023-03-01T15:21:22;5.30;1.00
22923;DHT22;11627;51.322;22.816;2023-03-01T15:24:07;5.20;1.00
22923;DHT22;11627;51.322;22.816;2023-03-01T15:29:30;5.40;1.00
22923;DHT22;11627;51.322;22.816;2023-03-01T15:32:04;5.30;1.00
22923;DHT22;11627;51.322;22.816;2023-03-01T15:34:34;5.20;1.00
22923;DHT22;11627;51.322;22.816;2023-03-01T15:37:01;5.10;1.00
22923;DHT22;11627;51.322;22.816;2023-03-01T15:39:43;4.90;1.00
22923;DHT22;11627;51.322;22.816;2023-03-01T15:42:10;4.70;1.00
22923;DHT22;11627;51.322;22.816;2023-03-01T15:44:38;4.50;1.00
22923;DHT22;11627;51.322;22.816;2023-03-01T15:47:26;4.40;1.00
22923;DHT22;11627;51.322;22.816;2023-03-01T15:49:53;4.40;1.00
22923;DHT22;11627;51.322;22.816;2023-03-01T15:52:32;4.10;1.00
22923;DHT22;11627;51.322;22.816;2023-03-01T15:55:05;4.00;1.00
22923;DHT22;11627;51.322;22.816;2023-03-01T15:57:31;3.80;1.00
22923;DHT22;11627;51.322;22.816;2023-03-01T15:59:57;3.80;1.00
22923;DHT22;11627;51.322;22.816;2023-03-01T16:02:24;3.80;1.00
22923;DHT22;11627;51.322;22.816;2023-03-01T16:04:50;3.70;1.00
22923;DHT22;11627;51.322;22.816;2023-03-01T16:07:16;3.70;1.00
22923;DHT22;11627;51.322;22.816;2023-03-01T16:09:42;3.70;1.00
22923;DHT22;11627;51.322;22.816;2023-03-01T16:12:18;3.60;1.00
22923;DHT22;11627;51.322;22.816;2023-03-01T16:14:46;3.50;1.00
22923;DHT22;11627;51.322;22.816;2023-03-01T16:17:11;3.40;1.00
22923;DHT22;11627;51.322;22.816;2023-03-01T16:19:39;3.30;1.10
22923;DHT22;11627;51.322;22.816;2023-03-01T16:22:06;3.20;4.00
22923;DHT22;11627;51.322;22.816;2023-03-01T16:24:32;3.10;6.10
22923;DHT22;11627;51.322;22.816;2023-03-01T16:26:58;2.90;8.80
22923;DHT22;11627;51.322;22.816;2023-03-01T16:29:24;2.80;13.70
22923;DHT22;11627;51.322;22.816;2023-03-01T16:31:49;2.70;15.90
22923;DHT22;11627;51.322;22.816;2023-03-01T16:34:16;2.70;18.00
22923;DHT22;11627;51.322;22.816;2023-03-01T16:36:42;2.50;21.90
22923;DHT22;11627;51.322;22.816;2023-03-01T16:39:09;2.50;26.10
22923;DHT22;11627;51.322;22.816;2023-03-01T16:41:35;2.40;28.80
22923;DHT22;11627;51.322;22.816;2023-03-01T16:44:00;2.40;30.00
22923;DHT22;11627;51.322;22.816;2023-03-01T16:46:28;2.30;30.80
22923;DHT22;11627;51.322;22.816;2023-03-01T16:48:54;2.30;33.20
22923;DHT22;11627;51.322;22.816;2023-03-01T16:51:23;2.20;35.20
22923;DHT22;11627;51.322;22.816;2023-03-01T16:53:51;2.20;37.00
22923;DHT22;11627;51.322;22.816;2023-03-01T16:56:17;2.10;37.90
22923;DHT22;11627;51.322;22.816;2023-03-01T16:58:44;2.00;41.30
22923;DHT22;11627;51.322;22.816;2023-03-01T17:01:15;1.90;43.70
22923;DHT22;11627;51.322;22.816;2023-03-01T17:03:42;1.80;46.80
22923;DHT22;11627;51.322;22.816;2023-03-01T17:06:14;1.80;51.00
22923;DHT22;11627;51.322;22.816;2023-03-01T17:08:40;1.70;52.10
22923;DHT22;11627;51.322;22.816;2023-03-01T17:11:12;1.80;54.70
22923;DHT22;11627;51.322;22.816;2023-03-01T17:13:39;1.70;59.90
22923;DHT22;11627;51.322;22.816;2023-03-01T17:16:07;1.70;67.20
22923;DHT22;11627;51.322;22.816;2023-03-01T17:18:34;1.70;73.90
22923;DHT22;11627;51.322;22.816;2023-03-01T17:21:00;1.80;73.80
22923;DHT22;11627;51.322;22.816;2023-03-01T17:23:28;1.80;73.80
22923;DHT22;11627;51.322;22.816;2023-03-01T17:25:54;1.90;71.80
22923;DHT22;11627;51.322;22.816;2023-03-01T17:28:27;2.00;67.40
22923;DHT22;11627;51.322;22.816;2023-03-01T17:30:55;2.00;64.00
22923;DHT22;11627;51.322;22.816;2023-03-01T17:33:21;1.90;60.40
22923;DHT22;11627;51.322;22.816;2023-03-01T17:35:51;1.80;56.80
22923;DHT22;11627;51.322;22.816;2023-03-01T17:38:18;1.70;54.90
22923;DHT22;11627;51.322;22.816;2023-03-01T17:40:44;1.60;55.90
22923;DHT22;11627;51.322;22.816;2023-03-01T17:43:15;1.50;58.70
22923;DHT22;11627;51.322;22.816;2023-03-01T17:45:43;1.50;60.30
22923;DHT22;11627;51.322;22.816;2023-03-01T17:48:13;1.50;63.10
22923;DHT22;11627;51.322;22.816;2023-03-01T17:50:40;1.40;65.60
22923;DHT22;11627;51.322;22.816;2023-03-01T17:53:06;1.30;68.70
22923;DHT22;11627;51.322;22.816;2023-03-01T17:55:42;1.30;72.80
22923;DHT22;11627;51.322;22.816;2023-03-01T17:58:09;1.20;74.80
22923;DHT22;11627;51.322;22.816;2023-03-01T18:00:36;1.20;77.70
22923;DHT22;11627;51.322;22.816;2023-03-01T18:03:02;1.10;81.40
22923;DHT22;11627;51.322;22.816;2023-03-01T18:05:34;1.10;84.70
22923;DHT22;11627;51.322;22.816;2023-03-01T18:08:00;1.00;85.30
22923;DHT22;11627;51.322;22.816;2023-03-01T18:10:26;1.00;86.70